createdAt,value
2018-10-18T00:01:07.633Z,14.70
2018-10-18T00:03:12.008Z,14.80
2018-10-18T00:05:16.324Z,14.70
2018-10-18T00:07:20.858Z,14.60
2018-10-18T00:09:25.367Z,14.50
2018-10-18T00:11:29.743Z,14.40
2018-10-18T00:13:34.319Z,14.20
2018-10-18T00:15:38.840Z,14.10
2018-10-18T00:17:47.222Z,14.10
2018-10-18T00:19:51.708Z,14.00
2018-10-18T00:21:56.222Z,14.00
2018-10-18T00:24:00.633Z,14.00
2018-10-18T00:26:05.060Z,14.30
2018-10-18T00:28:09.364Z,14.50
2018-10-18T00:30:14.810Z,14.70
2018-10-18T00:32:19.170Z,14.70
2018-10-18T00:34:23.549Z,14.50
2018-10-18T00:36:27.841Z,14.50
2018-10-18T00:38:32.202Z,14.40
2018-10-18T00:40:36.479Z,14.30
2018-10-18T00:42:40.743Z,14.10
2018-10-18T00:44:44.966Z,14.10
2018-10-18T00:46:49.320Z,14.10
2018-10-18T00:48:53.624Z,14.10
2018-10-18T00:50:57.825Z,14.00
2018-10-18T00:53:02.073Z,14.10
2018-10-18T00:55:07.668Z,14.30
2018-10-18T00:57:12.312Z,14.70
2018-10-18T00:59:16.708Z,15.00
2018-10-18T01:01:21.142Z,15.10
2018-10-18T01:03:25.420Z,15.10
2018-10-18T01:05:31.689Z,15.00
2018-10-18T01:07:35.982Z,14.80
2018-10-18T01:09:40.487Z,14.80
2018-10-18T01:11:44.740Z,14.70
2018-10-18T01:13:49.084Z,14.60
2018-10-18T01:15:53.401Z,14.60
2018-10-18T01:17:57.726Z,14.60
2018-10-18T01:20:02.127Z,14.60
2018-10-18T01:22:07.486Z,14.50
2018-10-18T01:24:11.900Z,14.70
2018-10-18T01:26:16.604Z,15.00
2018-10-18T01:28:21.093Z,15.30
2018-10-18T01:30:25.473Z,15.40
2018-10-18T01:32:29.861Z,15.30
2018-10-18T01:34:34.209Z,15.20
2018-10-18T01:36:38.459Z,15.00
2018-10-18T01:38:42.782Z,14.90
2018-10-18T01:40:47.239Z,14.90
2018-10-18T01:42:51.613Z,14.80
2018-10-18T01:44:55.936Z,14.80
2018-10-18T01:47:00.369Z,14.70
2018-10-18T01:49:04.781Z,14.60
2018-10-18T01:51:09.095Z,14.70
2018-10-18T01:53:13.307Z,14.80
2018-10-18T01:55:17.615Z,15.00
2018-10-18T01:57:22.043Z,15.30
2018-10-18T01:59:26.422Z,15.50
2018-10-18T02:01:31.137Z,15.50
2018-10-18T02:03:35.392Z,15.30
2018-10-18T02:05:39.702Z,15.20
2018-10-18T02:07:44.111Z,15.10
2018-10-18T02:09:48.470Z,15.00
2018-10-18T02:11:52.865Z,14.90
2018-10-18T02:13:57.273Z,14.90
2018-10-18T02:16:01.514Z,14.70
2018-10-18T02:18:05.861Z,14.70
2018-10-18T02:20:11.095Z,14.70
2018-10-18T02:22:15.543Z,15.00
2018-10-18T02:24:19.954Z,15.20
2018-10-18T02:26:24.381Z,15.40
2018-10-18T02:28:28.612Z,15.40
2018-10-18T02:30:32.936Z,15.40
2018-10-18T02:32:37.179Z,15.20
2018-10-18T02:34:41.446Z,15.10
2018-10-18T02:36:45.857Z,15.00
2018-10-18T02:38:50.178Z,14.90
2018-10-18T02:40:54.566Z,14.90
2018-10-18T02:42:58.947Z,14.80
2018-10-18T02:45:03.426Z,14.80
2018-10-18T02:47:07.728Z,14.70
2018-10-18T02:49:12.053Z,14.80
2018-10-18T02:51:16.397Z,15.00
2018-10-18T02:53:20.766Z,15.20
2018-10-18T02:55:25.227Z,15.40
2018-10-18T02:57:29.535Z,15.50
2018-10-18T02:59:33.962Z,15.40
2018-10-18T03:01:38.215Z,15.20
2018-10-18T03:03:42.482Z,15.10
2018-10-18T03:05:46.925Z,15.10
2018-10-18T03:07:51.223Z,14.90
2018-10-18T03:09:55.617Z,14.90
2018-10-18T03:12:00.180Z,14.80
2018-10-18T03:14:04.860Z,14.80
2018-10-18T03:16:09.242Z,14.80
2018-10-18T03:18:13.832Z,14.90
2018-10-18T03:20:18.274Z,15.20
2018-10-18T03:22:22.617Z,15.40
2018-10-18T03:24:26.845Z,15.70
2018-10-18T03:26:31.159Z,15.60
2018-10-18T03:28:35.466Z,15.50
2018-10-18T03:30:39.708Z,15.40
2018-10-18T03:32:43.886Z,15.20
2018-10-18T03:34:48.312Z,15.10
2018-10-18T03:36:52.517Z,15.10
2018-10-18T03:38:56.794Z,15.00
2018-10-18T03:41:01.074Z,15.00
2018-10-18T03:43:05.451Z,14.90
2018-10-18T03:45:09.770Z,14.90
2018-10-18T03:47:14.159Z,15.00
2018-10-18T03:49:18.615Z,15.40
2018-10-18T03:51:24.176Z,15.60
2018-10-18T03:53:28.475Z,15.70
2018-10-18T03:55:32.681Z,15.60
2018-10-18T03:57:36.998Z,15.50
2018-10-18T03:59:41.344Z,15.40
2018-10-18T04:01:45.616Z,15.30
2018-10-18T04:03:49.825Z,15.20
2018-10-18T04:05:54.256Z,15.10
2018-10-18T04:07:58.569Z,15.00
2018-10-18T04:10:02.996Z,14.90
2018-10-18T04:12:08.509Z,14.90
2018-10-18T04:14:12.640Z,14.90
2018-10-18T04:16:16.752Z,15.20
2018-10-18T04:18:21.370Z,15.40
2018-10-18T04:20:25.806Z,15.70
2018-10-18T04:22:30.128Z,15.70
2018-10-18T04:24:34.731Z,15.60
2018-10-18T04:26:39.055Z,15.40
2018-10-18T04:28:43.237Z,15.30
2018-10-18T04:30:47.452Z,15.20
2018-10-18T04:32:51.889Z,15.10
2018-10-18T04:34:56.036Z,15.00
2018-10-18T04:37:00.450Z,15.00
2018-10-18T04:39:06.568Z,14.90
2018-10-18T04:41:11.078Z,14.80
2018-10-18T04:43:15.723Z,15.00
2018-10-18T04:45:20.231Z,15.20
2018-10-18T04:47:24.680Z,15.50
2018-10-18T04:49:28.861Z,15.60
2018-10-18T04:51:33.348Z,15.60
2018-10-18T04:53:37.712Z,15.50
2018-10-18T04:55:41.990Z,15.30
2018-10-18T04:57:46.287Z,15.20
2018-10-18T04:59:50.727Z,15.00
2018-10-18T05:01:55.167Z,14.90
2018-10-18T05:03:59.579Z,14.80
2018-10-18T05:06:05.025Z,14.70
2018-10-18T05:08:09.352Z,14.60
2018-10-18T05:10:13.666Z,14.60
2018-10-18T05:12:18.045Z,14.80
2018-10-18T05:14:22.470Z,15.00
2018-10-18T05:16:26.882Z,15.30
2018-10-18T05:18:31.301Z,15.40
2018-10-18T05:20:35.614Z,15.30
2018-10-18T05:22:39.778Z,15.20
2018-10-18T05:24:44.142Z,15.10
2018-10-18T05:26:48.450Z,15.00
2018-10-18T05:28:52.807Z,14.80
2018-10-18T05:30:57.159Z,14.80
2018-10-18T05:33:01.720Z,14.70
2018-10-18T05:35:06.289Z,14.60
2018-10-18T05:37:10.651Z,14.60
2018-10-18T05:39:15.198Z,14.60
2018-10-18T05:41:19.503Z,14.70
2018-10-18T05:43:24.601Z,15.00
2018-10-18T05:45:28.934Z,15.30
2018-10-18T05:47:33.358Z,15.30
2018-10-18T05:49:37.607Z,15.10
2018-10-18T05:51:42.012Z,15.00
2018-10-18T05:53:46.438Z,14.80
2018-10-18T05:55:50.755Z,14.70
2018-10-18T05:57:55.151Z,14.60
2018-10-18T05:59:59.575Z,14.50
2018-10-18T06:02:04.176Z,14.50
2018-10-18T06:04:08.379Z,14.40
2018-10-18T06:06:12.697Z,14.30
2018-10-18T06:08:17.065Z,14.30
2018-10-18T06:10:32.401Z,14.50
2018-10-18T06:12:36.742Z,14.70
2018-10-18T06:14:41.002Z,15.00
2018-10-18T06:16:45.648Z,14.90
2018-10-18T06:18:49.943Z,14.90
2018-10-18T06:20:54.578Z,14.70
2018-10-18T06:22:58.949Z,14.60
2018-10-18T06:25:03.440Z,14.50
2018-10-18T06:27:07.975Z,14.40
2018-10-18T06:29:12.498Z,14.30
2018-10-18T06:31:16.960Z,14.30
2018-10-18T06:33:21.160Z,14.20
2018-10-18T06:35:25.510Z,14.20
2018-10-18T06:37:29.915Z,14.30
2018-10-18T06:39:34.295Z,14.60
2018-10-18T06:41:39.846Z,14.80
2018-10-18T06:43:44.228Z,15.00
2018-10-18T06:45:48.253Z,14.90
2018-10-18T06:47:52.425Z,14.70
2018-10-18T06:49:56.839Z,14.60
2018-10-18T06:52:01.100Z,14.40
2018-10-18T06:54:05.614Z,14.30
2018-10-18T06:56:09.991Z,14.30
2018-10-18T06:58:14.303Z,14.10
2018-10-18T07:00:22.617Z,14.00
2018-10-18T07:02:27.032Z,14.00
2018-10-18T07:04:31.441Z,14.00
2018-10-18T07:06:35.710Z,14.00
2018-10-18T07:08:40.085Z,14.30
2018-10-18T07:10:44.631Z,14.60
2018-10-18T07:12:48.893Z,14.80
2018-10-18T07:14:53.146Z,14.70
2018-10-18T07:16:57.797Z,14.70
2018-10-18T07:19:02.266Z,14.50
2018-10-18T07:21:06.957Z,14.40
2018-10-18T07:23:11.382Z,14.30
2018-10-18T07:25:16.440Z,14.30
2018-10-18T07:27:20.932Z,14.20
2018-10-18T07:29:25.244Z,14.20
2018-10-18T07:31:29.678Z,14.00
2018-10-18T07:33:34.093Z,14.10
2018-10-18T07:35:38.383Z,14.00
2018-10-18T07:37:42.722Z,14.20
2018-10-18T07:39:47.070Z,14.50
2018-10-18T07:41:51.554Z,14.60
2018-10-18T07:43:56.072Z,14.80
2018-10-18T07:46:00.346Z,14.90
2018-10-18T07:48:04.847Z,14.80
2018-10-18T07:50:09.203Z,14.80
2018-10-18T07:52:13.555Z,14.90
2018-10-18T07:54:17.798Z,14.80
2018-10-18T07:56:22.267Z,14.90
2018-10-18T07:58:26.653Z,14.80
2018-10-18T08:00:31.267Z,14.90
2018-10-18T08:02:35.650Z,15.00
2018-10-18T08:04:40.249Z,14.90
2018-10-18T08:06:44.761Z,15.00
2018-10-18T08:08:49.078Z,15.30
2018-10-18T08:10:53.408Z,15.60
2018-10-18T08:12:57.846Z,15.70
2018-10-18T08:15:02.331Z,15.70
2018-10-18T08:17:06.824Z,15.50
2018-10-18T08:19:11.193Z,15.30
2018-10-18T08:21:15.517Z,15.20
2018-10-18T08:23:19.905Z,15.10
2018-10-18T08:25:24.188Z,15.10
2018-10-18T08:27:28.648Z,15.10
2018-10-18T08:29:32.939Z,15.10
2018-10-18T08:31:37.242Z,15.10
2018-10-18T08:33:41.581Z,15.00
2018-10-18T08:35:45.909Z,15.10
2018-10-18T08:37:50.400Z,15.40
2018-10-18T08:39:55.206Z,15.70
2018-10-18T08:41:59.522Z,15.80
2018-10-18T08:44:04.058Z,15.80
2018-10-18T08:46:08.309Z,15.80
2018-10-18T08:48:12.713Z,15.60
2018-10-18T08:50:17.217Z,15.60
2018-10-18T08:52:21.529Z,15.60
2018-10-18T08:54:25.733Z,15.60
2018-10-18T08:56:29.956Z,15.60
2018-10-18T08:58:34.372Z,15.50
2018-10-18T09:00:38.708Z,15.50
2018-10-18T09:02:43.349Z,15.40
2018-10-18T09:04:47.685Z,15.90
2018-10-18T09:06:52.143Z,16.30
2018-10-18T09:08:56.556Z,16.70
2018-10-18T09:11:00.933Z,17.00
2018-10-18T09:13:05.293Z,16.80
2018-10-18T09:15:10.394Z,16.80
2018-10-18T09:17:14.836Z,16.70
2018-10-18T09:19:19.187Z,16.70
2018-10-18T09:21:23.622Z,16.70
2018-10-18T09:23:28.050Z,16.70
2018-10-18T09:25:32.613Z,16.60
2018-10-18T09:27:36.939Z,16.60
2018-10-18T09:29:41.378Z,16.70
2018-10-18T09:31:45.431Z,16.80
2018-10-18T09:33:49.872Z,17.00
2018-10-18T09:35:54.142Z,17.10
2018-10-18T09:37:58.470Z,17.30
2018-10-18T09:40:02.814Z,17.20
2018-10-18T09:42:07.213Z,17.40
2018-10-18T09:44:11.509Z,17.60
2018-10-18T09:46:15.959Z,17.70
2018-10-18T09:48:20.388Z,17.90
2018-10-18T09:50:24.782Z,18.10
2018-10-18T09:52:29.027Z,18.20
2018-10-18T09:54:33.344Z,18.40
2018-10-18T09:56:37.650Z,18.60
2018-10-18T09:58:42.189Z,18.50
2018-10-18T10:00:51.524Z,18.70
2018-10-18T10:03:02.509Z,19.10
2018-10-18T10:05:06.882Z,18.90
2018-10-18T10:07:11.196Z,19.20
2018-10-18T10:09:15.926Z,19.40
2018-10-18T10:11:20.542Z,18.90
2018-10-18T10:13:25.169Z,18.50
2018-10-18T10:15:29.786Z,18.00
2018-10-18T10:17:34.149Z,17.80
2018-10-18T10:19:39.067Z,17.50
2018-10-18T10:21:43.557Z,17.40
2018-10-18T10:23:49.355Z,17.30
2018-10-18T10:25:54.473Z,17.20
2018-10-18T10:27:58.927Z,17.50
2018-10-18T10:30:03.447Z,18.20
2018-10-18T10:32:07.782Z,18.50
2018-10-18T10:34:12.328Z,19.20
2018-10-18T10:36:16.846Z,19.50
2018-10-18T10:38:21.248Z,19.30
2018-10-18T10:40:25.536Z,18.90
2018-10-18T10:42:29.852Z,18.50
2018-10-18T10:44:34.179Z,18.30
2018-10-18T10:46:39.932Z,18.20
2018-10-18T10:48:44.689Z,18.30
2018-10-18T10:50:49.095Z,18.10
2018-10-18T10:52:53.501Z,18.00
2018-10-18T10:54:58.206Z,18.20
2018-10-18T10:57:02.883Z,18.30
2018-10-18T10:59:16.754Z,18.30
2018-10-18T11:01:22.113Z,18.30
2018-10-18T11:03:26.536Z,18.10
2018-10-18T11:05:30.970Z,18.10
2018-10-18T11:07:35.371Z,18.60
2018-10-18T11:09:40.045Z,18.70
2018-10-18T11:11:44.640Z,18.60
2018-10-18T11:13:49.126Z,18.40
2018-10-18T11:15:53.809Z,18.20
2018-10-18T11:17:58.268Z,18.30
2018-10-18T11:20:02.607Z,18.90
2018-10-18T11:22:07.452Z,19.30
2018-10-18T11:24:11.852Z,19.60
2018-10-18T11:26:16.410Z,19.60
2018-10-18T11:28:20.875Z,19.80
2018-10-18T11:30:25.161Z,20.00
2018-10-18T11:32:29.566Z,20.00
2018-10-18T11:34:34.175Z,19.80
2018-10-18T11:36:38.520Z,20.00
2018-10-18T11:38:42.805Z,20.10
2018-10-18T11:40:47.201Z,20.00
2018-10-18T11:42:51.416Z,19.40
2018-10-18T11:44:55.790Z,19.10
2018-10-18T11:47:00.118Z,18.90
2018-10-18T11:49:04.601Z,19.10
2018-10-18T11:51:08.937Z,19.40
2018-10-18T11:53:13.350Z,19.40
2018-10-18T11:55:17.552Z,19.40
2018-10-18T11:57:21.872Z,19.10
2018-10-18T11:59:26.604Z,18.90
2018-10-18T12:01:31.025Z,18.60
2018-10-18T12:03:35.486Z,18.40
2018-10-18T12:05:39.937Z,18.20
2018-10-18T12:07:44.472Z,18.20
2018-10-18T12:09:48.657Z,17.90
2018-10-18T12:11:54.479Z,18.00
2018-10-18T12:13:59.014Z,18.30
2018-10-18T12:16:03.357Z,18.50
2018-10-18T12:18:07.397Z,18.70
2018-10-18T12:20:13.973Z,18.80
2018-10-18T12:22:18.327Z,18.60
2018-10-18T12:24:23.067Z,18.60
2018-10-18T12:26:27.568Z,18.40
2018-10-18T12:28:32.037Z,18.40
2018-10-18T12:30:36.546Z,18.40
2018-10-18T12:32:40.936Z,18.40
2018-10-18T12:34:45.686Z,18.30
2018-10-18T12:36:50.399Z,18.40
2018-10-18T12:39:11.188Z,18.50
2018-10-18T12:41:17.699Z,18.50
2018-10-18T12:43:22.403Z,18.90
2018-10-18T12:45:27.144Z,19.00
2018-10-18T12:47:31.560Z,18.80
2018-10-18T12:49:36.775Z,18.70
2018-10-18T12:51:40.921Z,18.50
2018-10-18T12:53:45.074Z,18.40
2018-10-18T12:55:49.757Z,18.20
2018-10-18T12:57:54.006Z,18.00
2018-10-18T12:59:58.346Z,17.90
2018-10-18T13:02:02.658Z,17.80
2018-10-18T13:04:07.086Z,17.90
2018-10-18T13:06:11.645Z,18.10
2018-10-18T13:08:16.310Z,18.30
2018-10-18T13:10:20.564Z,18.50
2018-10-18T13:12:24.931Z,18.60
2018-10-18T13:14:29.769Z,18.30
2018-10-18T13:16:34.399Z,18.10
2018-10-18T13:18:38.620Z,18.00
2018-10-18T13:20:42.974Z,17.90
2018-10-18T13:22:47.216Z,17.70
2018-10-18T13:24:51.535Z,17.70
2018-10-18T13:26:55.864Z,17.60
2018-10-18T13:29:00.072Z,17.50
2018-10-18T13:31:04.103Z,17.60
2018-10-18T13:33:08.414Z,17.80
2018-10-18T13:35:12.581Z,18.10
2018-10-18T13:37:16.762Z,18.30
2018-10-18T13:39:20.947Z,18.30
2018-10-18T13:41:25.328Z,18.20
2018-10-18T13:43:29.299Z,18.10
2018-10-18T13:45:33.648Z,18.00
2018-10-18T13:47:38.199Z,17.90
2018-10-18T13:49:42.171Z,17.70
2018-10-18T13:51:46.519Z,17.60
2018-10-18T13:53:50.976Z,17.40
2018-10-18T13:55:55.511Z,17.40
2018-10-18T13:58:00.785Z,17.60
2018-10-18T14:00:17.079Z,17.80
2018-10-18T14:02:21.390Z,17.90
2018-10-18T14:04:26.558Z,17.80
2018-10-18T14:06:31.224Z,17.80
2018-10-18T14:08:35.531Z,17.80
2018-10-18T14:10:40.124Z,17.60
2018-10-18T14:12:45.693Z,17.50
2018-10-18T14:14:50.187Z,17.30
2018-10-18T14:16:54.472Z,17.20
2018-10-18T14:18:58.772Z,17.00
2018-10-18T14:21:03.169Z,16.90
2018-10-18T14:23:07.544Z,16.80
2018-10-18T14:25:11.940Z,17.00
2018-10-18T14:27:16.337Z,17.30
2018-10-18T14:29:20.799Z,17.50
2018-10-18T14:31:25.623Z,17.40
2018-10-18T14:33:29.837Z,17.40
2018-10-18T14:35:34.194Z,17.20
2018-10-18T14:37:38.555Z,17.10
2018-10-18T14:39:42.955Z,17.00
2018-10-18T14:41:47.295Z,16.90
2018-10-18T14:43:51.608Z,16.70
2018-10-18T14:45:55.999Z,16.60
2018-10-18T14:48:00.443Z,16.50
2018-10-18T14:50:05.599Z,16.60
2018-10-18T14:52:09.930Z,16.80
2018-10-18T14:54:14.295Z,17.00
2018-10-18T14:56:18.485Z,17.20
2018-10-18T14:58:22.916Z,17.10
2018-10-18T15:00:27.492Z,17.00
2018-10-18T15:02:32.066Z,16.80
2018-10-18T15:04:36.897Z,16.70
2018-10-18T15:06:41.520Z,16.60
2018-10-18T15:08:45.916Z,16.40
2018-10-18T15:10:50.242Z,16.40
2018-10-18T15:12:54.531Z,16.30
2018-10-18T15:14:59.076Z,16.20
2018-10-18T15:17:03.808Z,16.30
2018-10-18T15:19:08.297Z,16.40
2018-10-18T15:21:12.685Z,16.70
2018-10-18T15:23:17.315Z,16.80
2018-10-18T15:25:21.667Z,16.90
2018-10-18T15:27:26.196Z,16.70
2018-10-18T15:29:30.680Z,16.60
2018-10-18T15:31:34.927Z,16.40
2018-10-18T15:33:39.273Z,16.30
2018-10-18T15:35:43.638Z,16.20
2018-10-18T15:37:48.030Z,16.10
2018-10-18T15:39:52.309Z,16.00
2018-10-18T15:41:56.813Z,16.00
2018-10-18T15:44:01.138Z,16.00
2018-10-18T15:46:05.744Z,16.30
2018-10-18T15:48:09.968Z,16.50
2018-10-18T15:50:14.498Z,16.60
2018-10-18T15:52:18.803Z,16.70
2018-10-18T15:54:23.597Z,16.50
2018-10-18T15:56:27.960Z,16.40
2018-10-18T15:58:32.566Z,16.20
2018-10-18T16:00:36.960Z,16.10
2018-10-18T16:02:42.288Z,16.00
2018-10-18T16:04:46.717Z,15.90
2018-10-18T16:06:51.048Z,15.80
2018-10-18T16:08:55.463Z,15.80
2018-10-18T16:10:59.817Z,15.80
2018-10-18T16:13:04.354Z,16.00
2018-10-18T16:15:10.207Z,16.20
2018-10-18T16:17:14.747Z,16.40
2018-10-18T16:19:19.288Z,16.50
2018-10-18T16:21:24.068Z,16.40
2018-10-18T16:23:29.047Z,16.30
2018-10-18T16:25:33.479Z,16.20
2018-10-18T16:27:37.994Z,16.00
2018-10-18T16:29:42.687Z,15.90
2018-10-18T16:31:47.230Z,15.80
2018-10-18T16:33:51.652Z,15.70
2018-10-18T16:35:56.017Z,15.60
2018-10-18T16:38:00.199Z,15.60
2018-10-18T16:40:04.796Z,15.80
2018-10-18T16:42:09.034Z,16.10
2018-10-18T16:44:13.492Z,16.30
2018-10-18T16:46:17.704Z,16.40
2018-10-18T16:48:22.100Z,16.30
2018-10-18T16:50:26.567Z,16.10
2018-10-18T16:52:30.883Z,16.00
2018-10-18T16:54:35.402Z,15.90
2018-10-18T16:56:39.894Z,15.70
2018-10-18T16:58:44.649Z,15.60
2018-10-18T17:00:49.040Z,15.60
2018-10-18T17:02:53.362Z,15.50
2018-10-18T17:04:59.624Z,15.50
2018-10-18T17:07:04.349Z,15.50
2018-10-18T17:09:10.273Z,15.80
2018-10-18T17:11:14.537Z,16.00
2018-10-18T17:13:19.128Z,16.00
2018-10-18T17:15:23.594Z,16.00
2018-10-18T17:17:28.223Z,15.80
2018-10-18T17:19:32.613Z,15.50
2018-10-18T17:21:36.933Z,15.50
2018-10-18T17:23:41.352Z,15.40
2018-10-18T17:25:45.746Z,15.40
2018-10-18T17:27:50.254Z,15.20
2018-10-18T17:29:54.819Z,15.20
2018-10-18T17:31:59.355Z,15.20
2018-10-18T17:34:04.041Z,15.20
2018-10-18T17:36:09.430Z,15.40
2018-10-18T17:38:13.826Z,15.70
2018-10-18T17:40:18.003Z,16.00
2018-10-18T17:42:22.415Z,16.10
2018-10-18T17:44:27.033Z,16.00
2018-10-18T17:46:31.445Z,15.80
2018-10-18T17:48:35.894Z,15.70
2018-10-18T17:50:40.336Z,15.60
2018-10-18T17:52:44.768Z,15.40
2018-10-18T17:54:49.085Z,15.40
2018-10-18T17:56:53.491Z,15.30
2018-10-18T17:58:57.936Z,15.20
2018-10-18T18:01:02.272Z,15.20
2018-10-18T18:03:06.578Z,15.30
2018-10-18T18:05:12.323Z,15.50
2018-10-18T18:07:16.809Z,15.70
2018-10-18T18:09:22.245Z,15.90
2018-10-18T18:11:26.864Z,15.90
2018-10-18T18:13:31.412Z,15.80
2018-10-18T18:15:35.989Z,15.70
2018-10-18T18:17:40.880Z,15.50
2018-10-18T18:19:45.415Z,15.40
2018-10-18T18:21:49.953Z,15.30
2018-10-18T18:23:54.331Z,15.20
2018-10-18T18:25:58.857Z,15.20
2018-10-18T18:28:03.197Z,15.10
2018-10-18T18:30:09.962Z,15.10
2018-10-18T18:32:15.329Z,15.40
2018-10-18T18:34:19.787Z,15.60
2018-10-18T18:36:24.226Z,15.40
2018-10-18T18:38:28.749Z,15.50
2018-10-18T18:40:32.935Z,15.40
2018-10-18T18:42:37.457Z,15.30
2018-10-18T18:44:41.843Z,15.20
2018-10-18T18:46:46.381Z,15.10
2018-10-18T18:48:50.879Z,14.90
2018-10-18T18:50:55.271Z,14.90
2018-10-18T18:52:59.732Z,14.80
2018-10-18T18:55:04.556Z,14.80
2018-10-18T18:57:09.095Z,14.80
2018-10-18T18:59:13.484Z,14.90
2018-10-18T19:01:17.927Z,15.10
2018-10-18T19:03:22.563Z,15.30
2018-10-18T19:05:26.799Z,15.40
2018-10-18T19:07:31.055Z,15.40
2018-10-18T19:09:35.420Z,15.30
2018-10-18T19:11:40.155Z,15.20
2018-10-18T19:13:44.748Z,15.10
2018-10-18T19:15:49.179Z,14.90
2018-10-18T19:17:53.605Z,14.80
2018-10-18T19:19:58.221Z,14.70
2018-10-18T19:22:02.648Z,14.70
2018-10-18T19:24:07.167Z,14.60
2018-10-18T19:26:11.395Z,14.60
2018-10-18T19:28:15.844Z,14.70
2018-10-18T19:30:20.084Z,14.90
2018-10-18T19:32:24.539Z,15.20
2018-10-18T19:34:28.949Z,15.30
2018-10-18T19:36:33.655Z,15.30
2018-10-18T19:38:38.041Z,15.20
2018-10-18T19:40:42.281Z,15.00
2018-10-18T19:42:46.707Z,14.90
2018-10-18T19:44:50.971Z,14.80
2018-10-18T19:46:55.345Z,14.70
2018-10-18T19:48:59.783Z,14.60
2018-10-18T19:51:04.396Z,14.50
2018-10-18T19:53:08.831Z,14.50
2018-10-18T19:55:13.334Z,14.40
2018-10-18T19:57:17.798Z,14.50
2018-10-18T19:59:22.177Z,14.70
2018-10-18T20:01:26.589Z,14.90
2018-10-18T20:03:30.858Z,15.10
2018-10-18T20:05:35.092Z,15.00
2018-10-18T20:07:39.413Z,15.00
2018-10-18T20:09:43.650Z,14.80
2018-10-18T20:11:47.937Z,14.70
2018-10-18T20:13:52.808Z,14.70
2018-10-18T20:15:57.278Z,14.60
2018-10-18T20:18:01.591Z,14.60
2018-10-18T20:20:07.169Z,14.50
2018-10-18T20:22:12.993Z,14.50
2018-10-18T20:24:17.277Z,14.40
2018-10-18T20:26:21.980Z,14.50
2018-10-18T20:28:26.248Z,14.80
2018-10-18T20:30:30.638Z,15.10
2018-10-18T20:32:34.982Z,15.20
2018-10-18T20:34:39.360Z,15.10
2018-10-18T20:36:43.808Z,14.90
2018-10-18T20:38:48.172Z,14.90
2018-10-18T20:40:52.423Z,14.80
2018-10-18T20:42:56.747Z,14.80
2018-10-18T20:45:01.327Z,14.70
2018-10-18T20:47:05.582Z,14.60
2018-10-18T20:49:09.878Z,14.60
2018-10-18T20:51:14.399Z,14.50
2018-10-18T20:53:18.684Z,14.40
2018-10-18T20:55:23.173Z,14.60
2018-10-18T20:57:27.647Z,14.80
2018-10-18T20:59:32.087Z,15.00
2018-10-18T21:01:36.491Z,15.00
2018-10-18T21:03:40.800Z,15.00
2018-10-18T21:05:45.066Z,14.90
2018-10-18T21:07:49.557Z,14.80
2018-10-18T21:09:53.902Z,14.60
2018-10-18T21:11:58.354Z,14.50
2018-10-18T21:14:02.685Z,14.50
2018-10-18T21:16:07.639Z,14.40
2018-10-18T21:18:11.900Z,14.40
2018-10-18T21:20:16.159Z,14.30
2018-10-18T21:22:20.812Z,14.30
2018-10-18T21:24:25.080Z,14.40
2018-10-18T21:26:29.437Z,14.70
2018-10-18T21:28:33.707Z,15.00
2018-10-18T21:30:37.907Z,15.10
2018-10-18T21:32:42.239Z,15.00
2018-10-18T21:34:46.644Z,15.00
2018-10-18T21:36:50.885Z,14.80
2018-10-18T21:38:55.336Z,14.60
2018-10-18T21:40:59.754Z,14.50
2018-10-18T21:43:03.996Z,14.50
2018-10-18T21:45:08.465Z,14.40
2018-10-18T21:47:13.079Z,14.40
2018-10-18T21:49:17.373Z,14.30
2018-10-18T21:51:21.971Z,14.30
2018-10-18T21:53:26.410Z,14.40
2018-10-18T21:55:31.729Z,14.60
2018-10-18T21:57:36.174Z,14.60
2018-10-18T21:59:40.474Z,14.90
2018-10-18T22:01:45.310Z,14.80
2018-10-18T22:03:49.848Z,14.70
2018-10-18T22:05:54.210Z,14.60
2018-10-18T22:07:58.543Z,14.50
2018-10-18T22:10:03.035Z,14.40
2018-10-18T22:12:07.325Z,14.30
2018-10-18T22:14:12.046Z,14.20
2018-10-18T22:16:16.529Z,14.20
2018-10-18T22:18:20.817Z,14.10
2018-10-18T22:20:25.051Z,14.10
2018-10-18T22:22:29.289Z,14.10
2018-10-18T22:24:33.472Z,14.40
2018-10-18T22:26:37.885Z,14.70
2018-10-18T22:28:42.306Z,14.90
2018-10-18T22:30:46.592Z,14.80
2018-10-18T22:32:51.119Z,14.80
2018-10-18T22:34:55.404Z,14.50
2018-10-18T22:36:59.777Z,14.40
2018-10-18T22:39:05.048Z,14.20
2018-10-18T22:41:09.415Z,14.20
2018-10-18T22:43:13.843Z,14.10
2018-10-18T22:45:18.286Z,14.10
2018-10-18T22:47:22.541Z,14.00
2018-10-18T22:49:26.853Z,13.90
2018-10-18T22:51:31.135Z,14.00
2018-10-18T22:53:35.407Z,14.20
2018-10-18T22:55:39.638Z,14.50
2018-10-18T22:57:44.018Z,14.70
2018-10-18T22:59:48.489Z,14.70
2018-10-18T23:01:52.910Z,14.60
2018-10-18T23:03:57.170Z,14.40
2018-10-18T23:06:01.614Z,14.30
2018-10-18T23:08:05.727Z,14.20
2018-10-18T23:10:10.066Z,14.20
2018-10-18T23:12:14.253Z,14.10
2018-10-18T23:14:18.473Z,14.00
2018-10-18T23:16:22.818Z,13.90
2018-10-18T23:18:27.260Z,13.90
2018-10-18T23:20:31.713Z,13.80
2018-10-18T23:22:36.067Z,13.90
2018-10-18T23:24:40.369Z,14.20
2018-10-18T23:26:44.656Z,14.40
2018-10-18T23:28:48.933Z,14.60
2018-10-18T23:30:53.363Z,14.50
2018-10-18T23:32:57.842Z,14.40
2018-10-18T23:35:02.249Z,14.30
2018-10-18T23:37:06.954Z,14.20
2018-10-18T23:39:11.647Z,14.10
2018-10-18T23:41:16.187Z,14.00
2018-10-18T23:43:20.693Z,13.90
2018-10-18T23:45:25.127Z,13.80
2018-10-18T23:47:29.569Z,13.70
2018-10-18T23:49:33.982Z,13.70
2018-10-18T23:51:38.282Z,13.70
2018-10-18T23:53:42.585Z,13.90
2018-10-18T23:55:47.021Z,14.30
2018-10-18T23:57:51.311Z,14.50
2018-10-18T23:59:55.729Z,14.50
